sensor_id;sensor_type;location;lat;lon;timestamp;temperature;humidity
21540;DHT22;10931;52.164;5.518;2022-11-25T04:30:14;18.40;67.50
21540;DHT22;10931;52.164;5.518;2022-11-25T04:32:56;18.40;67.50
21540;DHT22;10931;52.164;5.518;2022-11-25T04:38:28;18.40;67.50
21540;DHT22;10931;52.164;5.518;2022-11-25T04:41:00;18.30;67.50
21540;DHT22;10931;52.164;5.518;2022-11-25T04:44:13;18.30;67.50
21540;DHT22;10931;52.164;5.518;2022-11-25T04:46:53;18.30;67.50
21540;DHT22;10931;52.164;5.518;2022-11-25T05:36:18;18.20;67.50
21540;DHT22;10931;52.164;5.518;2022-11-25T05:39:07;18.20;67.50
21540;DHT22;10931;52.164;5.518;2022-11-25T06:49:20;18.10;67.60
21540;DHT22;10931;52.164;5.518;2022-11-25T06:51:58;18.00;67.50
21540;DHT22;10931;52.164;5.518;2022-11-25T06:54:27;18.00;67.50
21540;DHT22;10931;52.164;5.518;2022-11-25T06:56:55;18.00;67.50
21540;DHT22;10931;52.164;5.518;2022-11-25T06:59:20;18.00;67.50
21540;DHT22;10931;52.164;5.518;2022-11-25T07:01:46;18.00;67.50
21540;DHT22;10931;52.164;5.518;2022-11-25T07:04:19;18.00;67.50
21540;DHT22;10931;52.164;5.518;2022-11-25T07:06:48;18.00;67.50
21540;DHT22;10931;52.164;5.518;2022-11-25T07:09:13;18.00;67.50
21540;DHT22;10931;52.164;5.518;2022-11-25T07:11:45;18.00;67.50
21540;DHT22;10931;52.164;5.518;2022-11-25T07:14:24;18.00;67.50
21540;DHT22;10931;52.164;5.518;2022-11-25T07:16:56;18.00;67.50
21540;DHT22;10931;52.164;5.518;2022-11-25T07:19:56;18.00;67.60
21540;DHT22;10931;52.164;5.518;2022-11-25T07:22:25;18.00;67.60
21540;DHT22;10931;52.164;5.518;2022-11-25T07:25:26;18.00;67.60
21540;DHT22;10931;52.164;5.518;2022-11-25T07:28:08;17.90;67.50
21540;DHT22;10931;52.164;5.518;2022-11-25T07:30:37;17.90;67.50
21540;DHT22;10931;52.164;5.518;2022-11-25T07:33:10;17.90;67.50
21540;DHT22;10931;52.164;5.518;2022-11-25T07:35:48;17.90;67.50
21540;DHT22;10931;52.164;5.518;2022-11-25T07:56:02;18.20;67.90
21540;DHT22;10931;52.164;5.518;2022-11-25T07:58:45;18.20;67.80
21540;DHT22;10931;52.164;5.518;2022-11-25T08:01:11;18.30;67.90
21540;DHT22;10931;52.164;5.518;2022-11-25T08:03:39;18.40;67.90
21540;DHT22;10931;52.164;5.518;2022-11-25T08:06:12;18.40;67.90
21540;DHT22;10931;52.164;5.518;2022-11-25T08:09:04;18.50;67.90
21540;DHT22;10931;52.164;5.518;2022-11-25T08:11:30;18.60;67.90
21540;DHT22;10931;52.164;5.518;2022-11-25T08:17:41;18.70;67.80
21540;DHT22;10931;52.164;5.518;2022-11-25T08:20:13;18.80;67.80
21540;DHT22;10931;52.164;5.518;2022-11-25T08:23:02;18.90;67.80
21540;DHT22;10931;52.164;5.518;2022-11-25T08:25:30;18.90;67.70
21540;DHT22;10931;52.164;5.518;2022-11-25T08:27:59;19.00;67.70
21540;DHT22;10931;52.164;5.518;2022-11-25T08:30:26;19.10;67.80
21540;DHT22;10931;52.164;5.518;2022-11-25T08:32:55;19.10;67.70
21540;DHT22;10931;52.164;5.518;2022-11-25T08:49:06;19.60;67.60
21540;DHT22;10931;52.164;5.518;2022-11-25T08:57:02;19.90;67.50
21540;DHT22;10931;52.164;5.518;2022-11-25T09:02:35;20.00;67.30
21540;DHT22;10931;52.164;5.518;2022-11-25T09:05:40;20.10;67.30
21540;DHT22;10931;52.164;5.518;2022-11-25T09:08:14;20.20;67.30
21540;DHT22;10931;52.164;5.518;2022-11-25T09:10:51;20.30;67.20
21540;DHT22;10931;52.164;5.518;2022-11-25T09:13:17;20.40;67.10
21540;DHT22;10931;52.164;5.518;2022-11-25T09:15:44;20.40;67.10
21540;DHT22;10931;52.164;5.518;2022-11-25T09:18:17;20.50;67.10
21540;DHT22;10931;52.164;5.518;2022-11-25T09:20:45;20.60;67.10
21540;DHT22;10931;52.164;5.518;2022-11-25T09:23:11;20.60;67.00
21540;DHT22;10931;52.164;5.518;2022-11-25T09:25:56;20.70;67.00
21540;DHT22;10931;52.164;5.518;2022-11-25T09:28:24;20.70;66.90
21540;DHT22;10931;52.164;5.518;2022-11-25T09:30:50;20.80;66.80
21540;DHT22;10931;52.164;5.518;2022-11-25T09:33:17;20.90;66.70
21540;DHT22;10931;52.164;5.518;2022-11-25T09:35:52;21.00;66.70
21540;DHT22;10931;52.164;5.518;2022-11-25T09:38:31;21.00;66.60
21540;DHT22;10931;52.164;5.518;2022-11-25T09:41:02;21.10;66.50
21540;DHT22;10931;52.164;5.518;2022-11-25T09:43:54;21.20;66.50
21540;DHT22;10931;52.164;5.518;2022-11-25T09:53:00;21.40;66.30
21540;DHT22;10931;52.164;5.518;2022-11-25T09:55:36;21.50;66.30
21540;DHT22;10931;52.164;5.518;2022-11-25T10:00:37;21.60;66.10
21540;DHT22;10931;52.164;5.518;2022-11-25T10:06:15;21.70;66.00
21540;DHT22;10931;52.164;5.518;2022-11-25T10:08:59;21.80;65.90
21540;DHT22;10931;52.164;5.518;2022-11-25T10:22:45;22.10;65.50
21540;DHT22;10931;52.164;5.518;2022-11-25T10:25:40;22.10;65.40
21540;DHT22;10931;52.164;5.518;2022-11-25T10:28:33;22.10;65.30
21540;DHT22;10931;52.164;5.518;2022-11-25T10:31:19;22.10;65.20
21540;DHT22;10931;52.164;5.518;2022-11-25T10:33:49;22.10;65.20
21540;DHT22;10931;52.164;5.518;2022-11-25T10:36:26;22.00;65.10
21540;DHT22;10931;52.164;5.518;2022-11-25T10:39:04;22.00;65.10
21540;DHT22;10931;52.164;5.518;2022-11-25T10:41:44;22.10;65.20
21540;DHT22;10931;52.164;5.518;2022-11-25T10:52:12;21.90;65.00
21540;DHT22;10931;52.164;5.518;2022-11-25T10:58:29;21.90;65.00
21540;DHT22;10931;52.164;5.518;2022-11-25T11:01:15;21.90;65.00
21540;DHT22;10931;52.164;5.518;2022-11-25T11:03:52;21.90;65.00
21540;DHT22;10931;52.164;5.518;2022-11-25T11:06:34;21.80;65.00
21540;DHT22;10931;52.164;5.518;2022-11-25T11:09:02;21.80;65.10
21540;DHT22;10931;52.164;5.518;2022-11-25T11:11:28;21.90;65.20
21540;DHT22;10931;52.164;5.518;2022-11-25T11:14:12;21.80;65.10
21540;DHT22;10931;52.164;5.518;2022-11-25T11:16:53;21.80;65.20
21540;DHT22;10931;52.164;5.518;2022-11-25T11:19:27;21.80;65.20
21540;DHT22;10931;52.164;5.518;2022-11-25T11:22:22;21.80;65.20
21540;DHT22;10931;52.164;5.518;2022-11-25T11:25:04;21.80;65.20
21540;DHT22;10931;52.164;5.518;2022-11-25T11:27:37;21.80;65.20
21540;DHT22;10931;52.164;5.518;2022-11-25T11:30:15;21.80;65.30
21540;DHT22;10931;52.164;5.518;2022-11-25T11:39:14;21.70;65.20
21540;DHT22;10931;52.164;5.518;2022-11-25T11:45:11;21.70;65.20
21540;DHT22;10931;52.164;5.518;2022-11-25T11:50:38;21.60;65.20
21540;DHT22;10931;52.164;5.518;2022-11-25T12:07:11;21.50;65.20
21540;DHT22;10931;52.164;5.518;2022-11-25T12:09:56;21.50;65.30
21540;DHT22;10931;52.164;5.518;2022-11-25T12:15:47;21.40;65.30
21540;DHT22;10931;52.164;5.518;2022-11-25T12:22:16;21.40;65.30
21540;DHT22;10931;52.164;5.518;2022-11-25T12:24:56;21.40;65.40
21540;DHT22;10931;52.164;5.518;2022-11-25T12:30:21;21.30;65.40
21540;DHT22;10931;52.164;5.518;2022-11-25T12:43:41;21.20;65.60
21540;DHT22;10931;52.164;5.518;2022-11-25T12:48:52;21.20;65.60
21540;DHT22;10931;52.164;5.518;2022-11-25T13:16:59;21.10;66.00
21540;DHT22;10931;52.164;5.518;2022-11-25T13:19:25;21.10;66.00
21540;DHT22;10931;52.164;5.518;2022-11-25T13:22:24;21.10;66.00
21540;DHT22;10931;52.164;5.518;2022-11-25T13:25:13;21.10;66.10
21540;DHT22;10931;52.164;5.518;2022-11-25T13:30:34;21.10;66.20
21540;DHT22;10931;52.164;5.518;2022-11-25T13:39:36;21.10;66.20
21540;DHT22;10931;52.164;5.518;2022-11-25T13:42:23;21.10;66.40
21540;DHT22;10931;52.164;5.518;2022-11-25T13:44:58;21.10;66.40
21540;DHT22;10931;52.164;5.518;2022-11-25T13:50:29;21.10;66.40
21540;DHT22;10931;52.164;5.518;2022-11-25T13:53:33;21.10;66.50
21540;DHT22;10931;52.164;5.518;2022-11-25T13:56:35;21.00;66.40
21540;DHT22;10931;52.164;5.518;2022-11-25T14:07:49;21.00;66.50
21540;DHT22;10931;52.164;5.518;2022-11-25T14:24:53;21.00;66.70
21540;DHT22;10931;52.164;5.518;2022-11-25T14:27:27;20.90;66.70
21540;DHT22;10931;52.164;5.518;2022-11-25T14:30:02;20.90;66.70
21540;DHT22;10931;52.164;5.518;2022-11-25T14:32:46;20.90;66.70
21540;DHT22;10931;52.164;5.518;2022-11-25T14:42:02;20.90;66.80
21540;DHT22;10931;52.164;5.518;2022-11-25T14:44:53;20.90;66.80
21540;DHT22;10931;52.164;5.518;2022-11-25T14:47:40;20.90;66.80
21540;DHT22;10931;52.164;5.518;2022-11-25T15:06:11;20.70;66.90
21540;DHT22;10931;52.164;5.518;2022-11-25T15:09:21;20.70;66.90
21540;DHT22;10931;52.164;5.518;2022-11-25T15:12:18;20.70;67.00
21540;DHT22;10931;52.164;5.518;2022-11-25T15:17:29;20.70;67.00
21540;DHT22;10931;52.164;5.518;2022-11-25T15:20:25;20.70;67.10
21540;DHT22;10931;52.164;5.518;2022-11-25T15:23:09;20.70;67.10
21540;DHT22;10931;52.164;5.518;2022-11-25T15:25:51;20.70;67.10
21540;DHT22;10931;52.164;5.518;2022-11-25T15:28:17;20.70;67.20
21540;DHT22;10931;52.164;5.518;2022-11-25T15:30:55;20.70;67.20
21540;DHT22;10931;52.164;5.518;2022-11-25T15:33:31;20.60;67.10
21540;DHT22;10931;52.164;5.518;2022-11-25T15:36:20;20.70;67.20
21540;DHT22;10931;52.164;5.518;2022-11-25T15:38:48;20.60;67.20
21540;DHT22;10931;52.164;5.518;2022-11-25T15:43:47;20.70;67.30
21540;DHT22;10931;52.164;5.518;2022-11-25T15:46:16;20.60;67.20
21540;DHT22;10931;52.164;5.518;2022-11-25T15:48:47;20.60;67.20
21540;DHT22;10931;52.164;5.518;2022-11-25T15:51:40;20.60;67.30
21540;DHT22;10931;52.164;5.518;2022-11-25T15:54:46;20.60;67.30
21540;DHT22;10931;52.164;5.518;2022-11-25T15:57:18;20.60;67.30
21540;DHT22;10931;52.164;5.518;2022-11-25T16:02:37;20.60;67.30
21540;DHT22;10931;52.164;5.518;2022-11-25T16:05:50;20.60;67.30
21540;DHT22;10931;52.164;5.518;2022-11-25T16:08:35;20.60;67.30
21540;DHT22;10931;52.164;5.518;2022-11-25T16:11:15;20.60;67.40
21540;DHT22;10931;52.164;5.518;2022-11-25T16:13:51;20.50;67.30
21540;DHT22;10931;52.164;5.518;2022-11-25T16:16:37;20.50;67.30
21540;DHT22;10931;52.164;5.518;2022-11-25T16:19:12;20.50;67.30
21540;DHT22;10931;52.164;5.518;2022-11-25T16:22:18;20.50;68.10
21540;DHT22;10931;52.164;5.518;2022-11-25T16:25:04;20.50;67.40
21540;DHT22;10931;52.164;5.518;2022-11-25T16:27:38;20.50;67.30
21540;DHT22;10931;52.164;5.518;2022-11-25T16:30:08;20.40;67.30
21540;DHT22;10931;52.164;5.518;2022-11-25T16:32:36;20.40;67.30
21540;DHT22;10931;52.164;5.518;2022-11-25T16:35:18;20.40;67.30
21540;DHT22;10931;52.164;5.518;2022-11-25T16:37:48;20.40;67.30
21540;DHT22;10931;52.164;5.518;2022-11-25T16:40:17;20.40;67.40
21540;DHT22;10931;52.164;5.518;2022-11-25T16:42:48;20.40;67.40
21540;DHT22;10931;52.164;5.518;2022-11-25T16:45:27;20.40;67.40
21540;DHT22;10931;52.164;5.518;2022-11-25T16:47:53;20.40;67.40
21540;DHT22;10931;52.164;5.518;2022-11-25T16:50:25;20.40;67.40
21540;DHT22;10931;52.164;5.518;2022-11-25T16:52:56;20.40;67.40
21540;DHT22;10931;52.164;5.518;2022-11-25T16:55:45;20.30;67.40
21540;DHT22;10931;52.164;5.518;2022-11-25T16:58:22;20.30;67.40
21540;DHT22;10931;52.164;5.518;2022-11-25T17:00:51;20.30;67.40
21540;DHT22;10931;52.164;5.518;2022-11-25T17:03:24;20.30;67.40
21540;DHT22;10931;52.164;5.518;2022-11-25T17:06:28;20.30;67.40
21540;DHT22;10931;52.164;5.518;2022-11-25T17:09:04;20.30;67.40
21540;DHT22;10931;52.164;5.518;2022-11-25T17:11:55;20.30;67.40
21540;DHT22;10931;52.164;5.518;2022-11-25T17:14:27;20.20;67.30
21540;DHT22;10931;52.164;5.518;2022-11-25T17:17:02;20.20;67.40
21540;DHT22;10931;52.164;5.518;2022-11-25T17:22:51;20.20;67.40
21540;DHT22;10931;52.164;5.518;2022-11-25T17:25:36;20.20;67.40
21540;DHT22;10931;52.164;5.518;2022-11-25T17:28:18;20.20;67.50
21540;DHT22;10931;52.164;5.518;2022-11-25T17:30:58;20.20;67.40
21540;DHT22;10931;52.164;5.518;2022-11-25T17:33:54;20.20;67.40
21540;DHT22;10931;52.164;5.518;2022-11-25T17:39:58;20.10;67.40
21540;DHT22;10931;52.164;5.518;2022-11-25T17:42:43;20.10;67.40
21540;DHT22;10931;52.164;5.518;2022-11-25T17:45:49;20.10;67.50
21540;DHT22;10931;52.164;5.518;2022-11-25T17:48:42;20.10;67.50
21540;DHT22;10931;52.164;5.518;2022-11-25T17:51:12;20.00;68.20
21540;DHT22;10931;52.164;5.518;2022-11-25T17:53:49;20.10;67.40
21540;DHT22;10931;52.164;5.518;2022-11-25T17:56:28;20.10;67.50
21540;DHT22;10931;52.164;5.518;2022-11-25T17:58:56;20.00;67.40
21540;DHT22;10931;52.164;5.518;2022-11-25T18:01:23;20.00;67.40
21540;DHT22;10931;52.164;5.518;2022-11-25T18:04:21;20.00;67.40
21540;DHT22;10931;52.164;5.518;2022-11-25T18:06:49;20.00;67.40
21540;DHT22;10931;52.164;5.518;2022-11-25T18:09:15;20.00;67.40
21540;DHT22;10931;52.164;5.518;2022-11-25T18:11:48;20.00;67.50
21540;DHT22;10931;52.164;5.518;2022-11-25T18:14:29;20.00;67.50
21540;DHT22;10931;52.164;5.518;2022-11-25T18:17:01;19.90;67.40
21540;DHT22;10931;52.164;5.518;2022-11-25T18:19:31;19.90;67.40
21540;DHT22;10931;52.164;5.518;2022-11-25T18:22:08;19.90;67.40
21540;DHT22;10931;52.164;5.518;2022-11-25T18:24:35;19.90;67.50
21540;DHT22;10931;52.164;5.518;2022-11-25T18:27:08;19.90;67.40
21540;DHT22;10931;52.164;5.518;2022-11-25T18:29:41;19.90;67.40
21540;DHT22;10931;52.164;5.518;2022-11-25T18:32:08;19.90;67.40
21540;DHT22;10931;52.164;5.518;2022-11-25T18:34:40;19.90;67.50
21540;DHT22;10931;52.164;5.518;2022-11-25T18:37:26;19.90;67.40
21540;DHT22;10931;52.164;5.518;2022-11-25T18:40:02;19.80;67.40
21540;DHT22;10931;52.164;5.518;2022-11-25T18:43:18;19.80;67.40
21540;DHT22;10931;52.164;5.518;2022-11-25T18:45:53;19.80;67.40
21540;DHT22;10931;52.164;5.518;2022-11-25T18:48:33;19.80;67.40
21540;DHT22;10931;52.164;5.518;2022-11-25T18:51:13;19.80;67.40
21540;DHT22;10931;52.164;5.518;2022-11-25T18:54:02;19.80;67.40
21540;DHT22;10931;52.164;5.518;2022-11-25T18:56:30;19.70;67.30
21540;DHT22;10931;52.164;5.518;2022-11-25T18:58:57;19.80;67.40
21540;DHT22;10931;52.164;5.518;2022-11-25T19:01:40;19.70;67.30
21540;DHT22;10931;52.164;5.518;2022-11-25T19:10:38;19.70;67.40
21540;DHT22;10931;52.164;5.518;2022-11-25T19:16:21;19.70;67.40
21540;DHT22;10931;52.164;5.518;2022-11-25T19:19:02;19.70;67.40
21540;DHT22;10931;52.164;5.518;2022-11-25T19:30:59;19.60;67.30
21540;DHT22;10931;52.164;5.518;2022-11-25T19:36:39;19.60;67.40
21540;DHT22;10931;52.164;5.518;2022-11-25T19:39:22;19.60;67.40
21540;DHT22;10931;52.164;5.518;2022-11-25T19:45:19;19.50;67.30
21540;DHT22;10931;52.164;5.518;2022-11-25T19:51:02;19.50;67.40
21540;DHT22;10931;52.164;5.518;2022-11-25T19:53:41;19.50;67.40
21540;DHT22;10931;52.164;5.518;2022-11-25T19:56:10;19.50;67.40
21540;DHT22;10931;52.164;5.518;2022-11-25T20:02:33;19.50;67.50
21540;DHT22;10931;52.164;5.518;2022-11-25T20:05:05;19.40;67.40
21540;DHT22;10931;52.164;5.518;2022-11-25T20:08:20;19.40;67.40
21540;DHT22;10931;52.164;5.518;2022-11-25T20:11:03;19.40;67.40
21540;DHT22;10931;52.164;5.518;2022-11-25T20:14:14;19.40;67.30
21540;DHT22;10931;52.164;5.518;2022-11-25T20:17:02;19.40;67.30
21540;DHT22;10931;52.164;5.518;2022-11-25T20:19:40;19.40;67.30
21540;DHT22;10931;52.164;5.518;2022-11-25T20:22:24;19.40;67.30
21540;DHT22;10931;52.164;5.518;2022-11-25T20:24:50;19.40;67.30
21540;DHT22;10931;52.164;5.518;2022-11-25T20:27:25;19.40;67.40
21540;DHT22;10931;52.164;5.518;2022-11-25T20:30:25;19.30;67.30
21540;DHT22;10931;52.164;5.518;2022-11-25T20:32:54;19.30;67.30
21540;DHT22;10931;52.164;5.518;2022-11-25T20:35:24;19.30;67.30
21540;DHT22;10931;52.164;5.518;2022-11-25T20:38:02;19.30;67.30
21540;DHT22;10931;52.164;5.518;2022-11-25T20:40:41;19.30;67.30
21540;DHT22;10931;52.164;5.518;2022-11-25T20:43:34;19.30;67.30
21540;DHT22;10931;52.164;5.518;2022-11-25T20:46:14;19.30;67.30
21540;DHT22;10931;52.164;5.518;2022-11-25T20:49:20;19.30;67.30
21540;DHT22;10931;52.164;5.518;2022-11-25T20:51:58;19.20;67.20
21540;DHT22;10931;52.164;5.518;2022-11-25T21:00:55;19.20;67.30
21540;DHT22;10931;52.164;5.518;2022-11-25T21:03:32;19.20;67.20
21540;DHT22;10931;52.164;5.518;2022-11-25T21:50:53;19.00;67.20
21540;DHT22;10931;52.164;5.518;2022-11-25T21:53:31;19.00;67.20
21540;DHT22;10931;52.164;5.518;2022-11-25T21:56:24;19.00;67.20
21540;DHT22;10931;52.164;5.518;2022-11-25T21:59:05;18.90;67.20
21540;DHT22;10931;52.164;5.518;2022-11-25T22:01:44;18.90;67.20
21540;DHT22;10931;52.164;5.518;2022-11-25T22:04:20;18.90;67.20
21540;DHT22;10931;52.164;5.518;2022-11-25T22:06:53;18.90;67.20
21540;DHT22;10931;52.164;5.518;2022-11-25T22:09:46;18.90;67.20
21540;DHT22;10931;52.164;5.518;2022-11-25T22:12:48;18.90;67.20
21540;DHT22;10931;52.164;5.518;2022-11-25T22:15:33;18.90;67.20
21540;DHT22;10931;52.164;5.518;2022-11-25T22:18:38;18.90;67.20
21540;DHT22;10931;52.164;5.518;2022-11-25T22:21:22;18.90;67.20
21540;DHT22;10931;52.164;5.518;2022-11-25T22:24:12;18.80;67.10
21540;DHT22;10931;52.164;5.518;2022-11-25T22:26:41;18.80;67.10
21540;DHT22;10931;52.164;5.518;2022-11-25T22:32:01;18.80;67.10
21540;DHT22;10931;52.164;5.518;2022-11-25T22:38:16;18.80;67.10
21540;DHT22;10931;52.164;5.518;2022-11-25T22:41:01;18.80;67.10
21540;DHT22;10931;52.164;5.518;2022-11-25T22:43:50;18.80;67.10
21540;DHT22;10931;52.164;5.518;2022-11-25T22:46:35;18.70;67.10
21540;DHT22;10931;52.164;5.518;2022-11-25T22:49:24;18.70;67.10
21540;DHT22;10931;52.164;5.518;2022-11-25T22:55:31;18.70;67.10
21540;DHT22;10931;52.164;5.518;2022-11-25T22:58:03;18.70;67.10
21540;DHT22;10931;52.164;5.518;2022-11-25T23:00:45;18.70;67.10
21540;DHT22;10931;52.164;5.518;2022-11-25T23:03:27;18.60;67.10
21540;DHT22;10931;52.164;5.518;2022-11-25T23:09:20;18.60;67.00
21540;DHT22;10931;52.164;5.518;2022-11-25T23:11:53;18.60;67.10
21540;DHT22;10931;52.164;5.518;2022-11-25T23:14:28;18.60;67.10
21540;DHT22;10931;52.164;5.518;2022-11-25T23:17:22;18.60;67.00
21540;DHT22;10931;52.164;5.518;2022-11-25T23:19:52;18.60;67.10
21540;DHT22;10931;52.164;5.518;2022-11-25T23:22:55;18.60;67.10
21540;DHT22;10931;52.164;5.518;2022-11-25T23:29:05;18.60;67.10
21540;DHT22;10931;52.164;5.518;2022-11-25T23:35:01;18.50;67.00
21540;DHT22;10931;52.164;5.518;2022-11-25T23:37:34;18.50;67.10
21540;DHT22;10931;52.164;5.518;2022-11-25T23:40:02;18.50;67.10
21540;DHT22;10931;52.164;5.518;2022-11-25T23:42:57;18.50;67.00
21540;DHT22;10931;52.164;5.518;2022-11-25T23:45:35;18.50;67.10
21540;DHT22;10931;52.164;5.518;2022-11-25T23:48:03;18.50;67.10
21540;DHT22;10931;52.164;5.518;2022-11-25T23:50:32;18.50;67.10
21540;DHT22;10931;52.164;5.518;2022-11-25T23:53:03;18.50;67.10
21540;DHT22;10931;52.164;5.518;2022-11-25T23:55:58;18.40;66.90
